createdAt,value
2018-10-07T00:00:48.463Z,0.00
2018-10-07T00:01:48.504Z,0.00
2018-10-07T00:02:48.434Z,0.00
2018-10-07T00:03:48.425Z,0.00
2018-10-07T00:04:48.452Z,0.00
2018-10-07T00:05:48.400Z,0.00
2018-10-07T00:06:48.397Z,0.00
2018-10-07T00:07:48.401Z,0.00
2018-10-07T00:08:48.371Z,0.00
2018-10-07T00:09:48.357Z,0.00
2018-10-07T00:10:48.413Z,0.00
2018-10-07T00:11:48.380Z,0.00
2018-10-07T00:12:48.328Z,0.00
2018-10-07T00:13:48.319Z,0.00
2018-10-07T00:14:48.303Z,0.00
2018-10-07T00:15:48.309Z,0.00
2018-10-07T00:16:48.282Z,0.00
2018-10-07T00:17:48.275Z,0.00
2018-10-07T00:18:48.310Z,0.00
2018-10-07T00:19:48.249Z,0.00
2018-10-07T00:20:48.235Z,0.00
2018-10-07T00:21:48.230Z,0.00
2018-10-07T00:22:48.219Z,0.00
2018-10-07T00:23:48.202Z,0.00
2018-10-07T00:24:48.183Z,0.00
2018-10-07T00:25:48.244Z,0.00
2018-10-07T00:26:48.160Z,0.00
2018-10-07T00:27:48.163Z,0.00
2018-10-07T00:28:48.159Z,0.00
2018-10-07T00:29:48.124Z,0.00
2018-10-07T00:30:48.139Z,0.00
2018-10-07T00:31:48.112Z,0.00
2018-10-07T00:32:48.202Z,0.00
2018-10-07T00:33:48.094Z,0.00
2018-10-07T00:34:48.079Z,0.00
2018-10-07T00:35:48.057Z,0.00
2018-10-07T00:36:48.059Z,0.00
2018-10-07T00:37:48.045Z,0.00
2018-10-07T00:38:48.037Z,0.00
2018-10-07T00:39:48.013Z,0.00
2018-10-07T00:40:48.028Z,0.00
2018-10-07T00:41:48.024Z,0.00
2018-10-07T00:42:47.979Z,0.00
2018-10-07T00:43:47.987Z,0.00
2018-10-07T00:44:47.959Z,0.00
2018-10-07T00:45:47.946Z,0.00
2018-10-07T00:46:47.937Z,0.00
2018-10-07T00:47:48.031Z,0.00
2018-10-07T00:48:47.916Z,0.00
2018-10-07T00:49:47.912Z,0.00
2018-10-07T00:50:47.894Z,0.00
2018-10-07T00:51:47.892Z,0.00
2018-10-07T00:52:47.874Z,0.00
2018-10-07T00:53:47.864Z,0.00
2018-10-07T00:54:47.921Z,0.00
2018-10-07T00:55:47.840Z,0.00
2018-10-07T00:56:47.837Z,0.00
2018-10-07T00:57:47.814Z,0.00
2018-10-07T00:58:47.803Z,0.00
2018-10-07T00:59:47.916Z,0.00
2018-10-07T01:00:47.780Z,0.00
2018-10-07T01:01:47.769Z,0.00
2018-10-07T01:02:47.864Z,0.00
2018-10-07T01:03:47.747Z,0.00
2018-10-07T01:04:47.785Z,0.00
2018-10-07T01:05:47.725Z,0.00
2018-10-07T01:06:47.713Z,0.00
2018-10-07T01:07:47.723Z,0.00
2018-10-07T01:08:47.728Z,0.00
2018-10-07T01:09:47.680Z,0.00
2018-10-07T01:10:47.702Z,0.00
2018-10-07T01:11:47.690Z,0.00
2018-10-07T01:12:47.652Z,0.00
2018-10-07T01:13:47.652Z,0.00
2018-10-07T01:14:47.631Z,0.00
2018-10-07T01:15:47.742Z,0.00
2018-10-07T01:16:47.607Z,0.00
2018-10-07T01:17:47.592Z,0.00
2018-10-07T01:18:47.582Z,0.00
2018-10-07T01:19:47.568Z,0.00
2018-10-07T01:20:47.574Z,0.00
2018-10-07T01:21:47.580Z,0.00
2018-10-07T01:22:47.618Z,0.00
2018-10-07T01:23:47.524Z,0.00
2018-10-07T01:24:47.531Z,0.00
2018-10-07T01:25:47.501Z,0.00
2018-10-07T01:26:47.494Z,0.00
2018-10-07T01:27:47.479Z,0.00
2018-10-07T01:28:47.526Z,0.00
2018-10-07T01:29:47.458Z,0.00
2018-10-07T01:30:47.450Z,0.00
2018-10-07T01:31:47.445Z,0.00
2018-10-07T01:32:47.434Z,0.00
2018-10-07T01:33:47.412Z,0.00
2018-10-07T01:34:47.453Z,0.00
2018-10-07T01:35:47.395Z,0.00
2018-10-07T01:37:56.542Z,0.00
2018-10-07T01:38:56.520Z,0.00
2018-10-07T01:39:56.526Z,0.00
2018-10-07T01:40:56.507Z,0.00
2018-10-07T01:41:56.479Z,0.00
2018-10-07T01:42:56.482Z,0.00
2018-10-07T01:43:56.467Z,0.00
2018-10-07T01:44:56.479Z,0.00
2018-10-07T01:45:56.445Z,0.00
2018-10-07T01:46:56.440Z,0.00
2018-10-07T01:47:56.438Z,0.00
2018-10-07T01:48:56.424Z,0.00
2018-10-07T01:49:56.412Z,0.00
2018-10-07T01:50:56.390Z,0.00
2018-10-07T01:51:56.376Z,0.00
2018-10-07T01:52:56.391Z,0.00
2018-10-07T01:53:56.359Z,0.00
2018-10-07T01:54:56.356Z,0.00
2018-10-07T01:55:56.471Z,0.00
2018-10-07T01:56:56.325Z,0.00
2018-10-07T01:57:56.393Z,0.00
2018-10-07T01:58:56.307Z,0.00
2018-10-07T01:59:56.291Z,0.00
2018-10-07T02:00:56.290Z,0.00
2018-10-07T02:01:56.269Z,0.00
2018-10-07T02:02:56.265Z,0.00
2018-10-07T02:03:56.281Z,0.00
2018-10-07T02:04:56.256Z,0.00
2018-10-07T02:05:56.233Z,0.00
2018-10-07T02:06:56.224Z,0.00
2018-10-07T02:07:56.202Z,0.00
2018-10-07T02:08:56.408Z,0.00
2018-10-07T02:09:56.179Z,0.00
2018-10-07T02:10:56.166Z,0.00
2018-10-07T02:11:56.167Z,0.00
2018-10-07T02:12:56.170Z,0.00
2018-10-07T02:13:56.257Z,0.00
2018-10-07T02:14:56.116Z,0.00
2018-10-07T02:15:56.123Z,0.00
2018-10-07T02:16:56.120Z,0.00
2018-10-07T02:17:56.098Z,0.00
2018-10-07T02:18:56.078Z,0.00
2018-10-07T02:19:56.082Z,0.00
2018-10-07T02:20:56.103Z,0.00
2018-10-07T02:21:56.051Z,0.00
2018-10-07T02:22:56.054Z,0.00
2018-10-07T02:23:56.032Z,0.00
2018-10-07T02:24:56.022Z,0.00
2018-10-07T02:25:56.020Z,0.00
2018-10-07T02:26:55.997Z,0.00
2018-10-07T02:27:55.991Z,0.00
2018-10-07T02:28:55.983Z,0.00
2018-10-07T02:29:55.975Z,0.00
2018-10-07T02:30:55.954Z,0.00
2018-10-07T02:31:55.939Z,0.00
2018-10-07T02:32:55.932Z,0.00
2018-10-07T02:33:55.945Z,0.00
2018-10-07T02:34:55.912Z,0.00
2018-10-07T02:35:55.898Z,0.00
2018-10-07T02:36:55.875Z,0.00
2018-10-07T02:37:55.867Z,0.00
2018-10-07T02:38:55.851Z,0.00
2018-10-07T02:39:55.842Z,0.00
2018-10-07T02:40:55.867Z,0.00
2018-10-07T02:41:55.843Z,0.00
2018-10-07T02:42:55.809Z,0.00
2018-10-07T02:43:55.809Z,0.00
2018-10-07T02:44:55.784Z,0.00
2018-10-07T02:45:55.792Z,0.00
2018-10-07T02:46:55.762Z,0.00
2018-10-07T02:47:55.750Z,0.00
2018-10-07T02:48:55.781Z,0.00
2018-10-07T02:49:55.723Z,0.00
2018-10-07T02:50:55.721Z,0.00
2018-10-07T02:51:55.722Z,0.00
2018-10-07T02:52:55.737Z,0.00
2018-10-07T02:53:55.681Z,0.00
2018-10-07T02:54:55.679Z,0.00
2018-10-07T02:55:55.665Z,0.00
2018-10-07T02:56:55.689Z,0.00
2018-10-07T02:57:55.657Z,0.00
2018-10-07T02:58:55.661Z,0.00
2018-10-07T02:59:55.627Z,0.00
2018-10-07T03:00:55.641Z,0.00
2018-10-07T03:01:55.660Z,0.00
2018-10-07T03:02:56.357Z,0.00
2018-10-07T03:03:55.593Z,0.00
2018-10-07T03:04:55.602Z,0.00
2018-10-07T03:05:55.555Z,0.00
2018-10-07T03:06:55.573Z,0.00
2018-10-07T03:07:55.537Z,0.00
2018-10-07T03:08:55.552Z,0.00
2018-10-07T03:09:55.548Z,0.00
2018-10-07T03:10:55.518Z,0.00
2018-10-07T03:11:55.490Z,0.00
2018-10-07T03:12:55.488Z,0.00
2018-10-07T03:13:55.532Z,0.00
2018-10-07T03:14:55.460Z,0.00
2018-10-07T03:15:55.445Z,0.00
2018-10-07T03:16:55.457Z,0.00
2018-10-07T03:17:55.477Z,0.00
2018-10-07T03:18:55.422Z,0.00
2018-10-07T03:19:55.442Z,0.00
2018-10-07T03:20:55.397Z,0.00
2018-10-07T03:21:55.393Z,0.00
2018-10-07T03:22:55.406Z,0.00
2018-10-07T03:23:55.360Z,0.00
2018-10-07T03:24:55.374Z,0.00
2018-10-07T03:25:55.336Z,0.00
2018-10-07T03:26:55.327Z,0.00
2018-10-07T03:27:55.324Z,0.00
2018-10-07T03:28:55.315Z,0.00
2018-10-07T03:29:55.345Z,0.00
2018-10-07T03:30:55.277Z,0.00
2018-10-07T03:31:55.302Z,0.00
2018-10-07T03:32:55.315Z,0.00
2018-10-07T03:33:55.253Z,0.00
2018-10-07T03:34:55.320Z,0.00
2018-10-07T03:35:55.256Z,0.00
2018-10-07T03:36:55.236Z,0.00
2018-10-07T03:37:55.218Z,0.00
2018-10-07T03:38:55.196Z,0.00
2018-10-07T03:39:55.202Z,0.00
2018-10-07T03:40:55.168Z,0.00
2018-10-07T03:41:55.193Z,0.00
2018-10-07T03:42:55.172Z,0.00
2018-10-07T03:43:55.175Z,0.00
2018-10-07T03:44:55.120Z,0.00
2018-10-07T03:45:55.122Z,0.00
2018-10-07T03:46:55.101Z,0.00
2018-10-07T03:47:55.110Z,0.00
2018-10-07T03:48:55.075Z,0.00
2018-10-07T03:49:55.100Z,0.00
2018-10-07T03:50:55.085Z,0.00
2018-10-07T03:51:55.041Z,0.00
2018-10-07T03:52:55.035Z,0.00
2018-10-07T03:53:55.019Z,0.00
2018-10-07T03:54:55.017Z,0.00
2018-10-07T03:55:55.035Z,0.00
2018-10-07T03:56:54.986Z,0.00
2018-10-07T03:57:54.980Z,0.00
2018-10-07T03:58:54.972Z,0.00
2018-10-07T03:59:54.972Z,0.00
2018-10-07T04:00:54.940Z,0.00
2018-10-07T04:01:54.931Z,0.00
2018-10-07T04:02:54.927Z,0.00
2018-10-07T04:03:54.940Z,0.00
2018-10-07T04:04:54.900Z,0.00
2018-10-07T04:05:54.908Z,0.00
2018-10-07T04:06:54.877Z,0.00
2018-10-07T04:07:54.867Z,0.00
2018-10-07T04:08:54.848Z,0.00
2018-10-07T04:09:54.836Z,0.00
2018-10-07T04:10:54.834Z,0.00
2018-10-07T04:11:54.813Z,0.00
2018-10-07T04:12:54.805Z,0.00
2018-10-07T04:13:54.800Z,0.00
2018-10-07T04:14:54.779Z,0.00
2018-10-07T04:15:54.789Z,0.00
2018-10-07T04:16:54.761Z,0.00
2018-10-07T04:17:54.773Z,0.00
2018-10-07T04:18:54.758Z,0.00
2018-10-07T04:19:54.724Z,0.00
2018-10-07T04:20:54.729Z,0.00
2018-10-07T04:21:54.719Z,0.00
2018-10-07T04:22:54.691Z,0.00
2018-10-07T04:23:54.696Z,0.00
2018-10-07T04:24:54.671Z,0.00
2018-10-07T04:25:54.660Z,0.00
2018-10-07T04:26:54.666Z,0.00
2018-10-07T04:27:54.670Z,0.00
2018-10-07T04:28:54.700Z,0.00
2018-10-07T04:29:54.623Z,0.00
2018-10-07T04:30:54.626Z,0.00
2018-10-07T04:31:54.630Z,0.00
2018-10-07T04:32:54.585Z,0.00
2018-10-07T04:33:54.572Z,0.00
2018-10-07T04:34:54.575Z,0.00
2018-10-07T04:35:54.541Z,0.00
2018-10-07T04:36:54.545Z,0.00
2018-10-07T04:37:54.565Z,0.00
2018-10-07T04:38:54.508Z,0.00
2018-10-07T04:39:54.596Z,0.00
2018-10-07T04:40:54.497Z,0.00
2018-10-07T04:41:54.512Z,0.00
2018-10-07T04:42:54.557Z,0.00
2018-10-07T04:43:54.482Z,0.00
2018-10-07T04:44:54.452Z,0.00
2018-10-07T04:45:54.561Z,0.00
2018-10-07T04:46:54.444Z,0.00
2018-10-07T04:47:54.457Z,0.00
2018-10-07T04:48:54.434Z,0.00
2018-10-07T04:49:54.461Z,0.00
2018-10-07T04:50:54.378Z,0.00
2018-10-07T04:51:54.382Z,0.00
2018-10-07T04:52:54.427Z,0.00
2018-10-07T04:53:54.377Z,0.00
2018-10-07T04:54:54.340Z,0.00
2018-10-07T04:55:54.395Z,0.00
2018-10-07T04:56:54.313Z,0.00
2018-10-07T04:57:54.310Z,0.00
2018-10-07T04:58:54.345Z,0.00
2018-10-07T04:59:54.308Z,0.00
2018-10-07T05:00:54.274Z,0.00
2018-10-07T05:01:54.317Z,0.00
2018-10-07T05:02:54.265Z,0.00
2018-10-07T05:03:54.237Z,0.00
2018-10-07T05:04:54.231Z,0.00
2018-10-07T05:05:54.217Z,0.00
2018-10-07T05:06:54.308Z,0.00
2018-10-07T05:07:54.239Z,0.00
2018-10-07T05:08:54.218Z,0.00
2018-10-07T05:09:54.173Z,0.00
2018-10-07T05:10:54.160Z,0.00
2018-10-07T05:11:54.212Z,0.00
2018-10-07T05:12:54.155Z,4.00
2018-10-07T05:13:54.164Z,4.00
2018-10-07T05:14:54.138Z,4.00
2018-10-07T05:15:54.103Z,4.00
2018-10-07T05:16:54.125Z,4.00
2018-10-07T05:17:54.079Z,4.00
2018-10-07T05:18:54.074Z,0.00
2018-10-07T05:19:54.106Z,4.00
2018-10-07T05:20:54.089Z,4.00
2018-10-07T05:21:54.043Z,4.00
2018-10-07T05:22:54.028Z,4.00
2018-10-07T05:23:54.017Z,4.00
2018-10-07T05:24:54.027Z,8.00
2018-10-07T05:25:53.995Z,8.00
2018-10-07T05:26:53.984Z,8.00
2018-10-07T05:27:53.984Z,4.00
2018-10-07T05:28:54.009Z,8.00
2018-10-07T05:29:53.996Z,8.00
2018-10-07T05:30:53.973Z,8.00
2018-10-07T05:31:53.963Z,12.00
2018-10-07T05:32:53.941Z,8.00
2018-10-07T05:33:53.909Z,12.00
2018-10-07T05:34:53.917Z,12.00
2018-10-07T05:35:53.903Z,16.00
2018-10-07T05:36:53.904Z,12.00
2018-10-07T05:37:53.855Z,16.00
2018-10-07T05:38:53.896Z,16.00
2018-10-07T05:39:53.834Z,20.00
2018-10-07T05:40:53.901Z,16.00
2018-10-07T05:41:53.862Z,20.00
2018-10-07T05:42:53.810Z,20.00
2018-10-07T05:43:53.813Z,20.00
2018-10-07T05:44:53.842Z,20.00
2018-10-07T05:45:53.792Z,24.00
2018-10-07T05:46:53.794Z,24.00
2018-10-07T05:47:53.844Z,24.00
2018-10-07T05:48:53.764Z,28.00
2018-10-07T05:49:53.721Z,28.00
2018-10-07T05:50:53.774Z,32.00
2018-10-07T05:51:53.726Z,32.00
2018-10-07T05:52:53.691Z,36.00
2018-10-07T05:53:53.677Z,36.00
2018-10-07T05:54:53.686Z,40.00
2018-10-07T05:55:53.665Z,48.00
2018-10-07T05:56:53.696Z,52.00
2018-10-07T05:57:53.644Z,64.00
2018-10-07T05:58:53.631Z,72.00
2018-10-07T05:59:53.649Z,76.00
2018-10-07T06:00:53.625Z,80.00
2018-10-07T06:01:53.683Z,84.00
2018-10-07T06:02:53.584Z,84.00
2018-10-07T06:03:53.592Z,88.00
2018-10-07T06:04:53.641Z,88.00
2018-10-07T06:05:53.582Z,84.00
2018-10-07T06:06:53.561Z,80.00
2018-10-07T06:07:53.527Z,84.00
2018-10-07T06:08:53.529Z,88.00
2018-10-07T06:09:53.528Z,92.00
2018-10-07T06:10:53.482Z,92.00
2018-10-07T06:11:53.501Z,96.00
2018-10-07T06:12:53.913Z,96.00
2018-10-07T06:13:53.448Z,100.00
2018-10-07T06:14:53.477Z,104.00
2018-10-07T06:15:53.448Z,108.00
2018-10-07T06:16:53.416Z,108.00
2018-10-07T06:17:53.424Z,116.00
2018-10-07T06:18:53.429Z,120.00
2018-10-07T06:19:53.392Z,124.00
2018-10-07T06:20:53.416Z,128.00
2018-10-07T06:21:53.381Z,124.00
2018-10-07T06:22:53.354Z,120.00
2018-10-07T06:23:53.380Z,120.00
2018-10-07T06:24:53.340Z,112.00
2018-10-07T06:25:53.896Z,116.00
2018-10-07T06:26:53.316Z,120.00
2018-10-07T06:27:53.316Z,120.00
2018-10-07T06:28:53.327Z,116.00
2018-10-07T06:29:53.311Z,120.00
2018-10-07T06:30:53.282Z,124.00
2018-10-07T06:31:53.248Z,128.00
2018-10-07T06:32:53.249Z,128.00
2018-10-07T06:33:53.273Z,124.00
2018-10-07T06:34:53.219Z,124.00
2018-10-07T06:35:53.261Z,120.00
2018-10-07T06:36:53.203Z,116.00
2018-10-07T06:37:53.188Z,116.00
2018-10-07T06:38:53.239Z,116.00
2018-10-07T06:39:53.190Z,112.00
2018-10-07T06:40:53.152Z,116.00
2018-10-07T06:41:53.147Z,112.00
2018-10-07T06:42:53.151Z,112.00
2018-10-07T06:43:53.122Z,108.00
2018-10-07T06:44:53.102Z,108.00
2018-10-07T06:45:53.212Z,108.00
2018-10-07T06:46:53.096Z,108.00
2018-10-07T06:47:53.098Z,108.00
2018-10-07T06:48:53.904Z,112.00
2018-10-07T06:49:53.056Z,120.00
2018-10-07T06:50:53.040Z,120.00
2018-10-07T06:51:53.048Z,124.00
2018-10-07T06:52:53.022Z,128.00
2018-10-07T06:53:53.018Z,136.00
2018-10-07T06:54:53.001Z,136.00
2018-10-07T06:55:52.990Z,140.00
2018-10-07T06:56:52.985Z,140.00
2018-10-07T06:57:52.967Z,140.00
2018-10-07T06:58:52.957Z,148.00
2018-10-07T06:59:52.981Z,148.00
2018-10-07T07:00:52.947Z,148.00
2018-10-07T07:01:53.002Z,152.00
2018-10-07T07:02:52.921Z,152.00
2018-10-07T07:03:52.903Z,156.00
2018-10-07T07:04:52.891Z,156.00
2018-10-07T07:05:52.901Z,152.00
2018-10-07T07:06:52.877Z,156.00
2018-10-07T07:07:52.856Z,160.00
2018-10-07T07:08:52.861Z,160.00
2018-10-07T07:09:52.847Z,164.00
2018-10-07T07:10:52.834Z,168.00
2018-10-07T07:11:52.868Z,172.00
2018-10-07T07:12:52.865Z,180.00
2018-10-07T07:13:52.802Z,184.00
2018-10-07T07:14:52.776Z,196.00
2018-10-07T07:15:52.774Z,200.00
2018-10-07T07:16:52.791Z,204.00
2018-10-07T07:17:52.745Z,212.00
2018-10-07T07:18:52.770Z,220.00
2018-10-07T07:19:52.821Z,224.00
2018-10-07T07:20:52.769Z,232.00
2018-10-07T07:21:53.014Z,244.00
2018-10-07T07:22:52.733Z,244.00
2018-10-07T07:23:52.693Z,252.00
2018-10-07T07:24:52.689Z,260.00
2018-10-07T07:25:52.656Z,268.00
2018-10-07T07:26:52.644Z,280.00
2018-10-07T07:27:52.681Z,288.00
2018-10-07T07:28:52.632Z,296.00
2018-10-07T07:29:52.613Z,308.00
2018-10-07T07:30:52.638Z,320.00
2018-10-07T07:31:52.585Z,332.00
2018-10-07T07:32:52.641Z,344.00
2018-10-07T07:33:52.565Z,352.00
2018-10-07T07:34:52.555Z,364.00
2018-10-07T07:35:52.578Z,376.00
2018-10-07T07:36:52.693Z,388.00
2018-10-07T07:37:52.537Z,400.00
2018-10-07T07:38:52.554Z,416.00
2018-10-07T07:39:52.513Z,436.00
2018-10-07T07:40:52.488Z,452.00
2018-10-07T07:41:52.501Z,472.00
2018-10-07T07:42:52.470Z,492.00
2018-10-07T07:43:52.467Z,512.00
2018-10-07T07:44:52.445Z,532.00
2018-10-07T07:45:52.435Z,552.00
2018-10-07T07:46:52.415Z,572.00
2018-10-07T07:47:52.456Z,588.00
2018-10-07T07:48:52.427Z,600.00
2018-10-07T07:49:52.410Z,604.00
2018-10-07T07:50:52.394Z,608.00
2018-10-07T07:51:52.378Z,616.00
2018-10-07T07:52:52.352Z,616.00
2018-10-07T07:53:52.356Z,624.00
2018-10-07T07:54:52.344Z,628.00
2018-10-07T07:55:52.316Z,628.00
2018-10-07T07:56:52.318Z,636.00
2018-10-07T07:57:52.321Z,648.00
2018-10-07T07:58:52.279Z,656.00
2018-10-07T07:59:52.308Z,668.00
2018-10-07T08:00:52.264Z,680.00
2018-10-07T08:01:52.246Z,692.00
2018-10-07T08:02:52.243Z,700.00
2018-10-07T08:03:52.246Z,708.00
2018-10-07T08:04:52.243Z,708.00
2018-10-07T08:05:52.207Z,708.00
2018-10-07T08:06:52.197Z,700.00
2018-10-07T08:07:52.209Z,688.00
2018-10-07T08:08:52.239Z,676.00
2018-10-07T08:09:52.230Z,664.00
2018-10-07T08:10:52.145Z,644.00
2018-10-07T08:11:52.135Z,636.00
2018-10-07T08:12:52.154Z,628.00
2018-10-07T08:13:52.112Z,628.00
2018-10-07T08:14:52.105Z,624.00
2018-10-07T08:15:52.150Z,620.00
2018-10-07T08:16:52.108Z,620.00
2018-10-07T08:17:52.208Z,616.00
2018-10-07T08:18:52.065Z,612.00
2018-10-07T08:19:52.045Z,608.00
2018-10-07T08:20:52.083Z,608.00
2018-10-07T08:21:52.033Z,600.00
2018-10-07T08:22:52.050Z,596.00
2018-10-07T08:23:52.102Z,588.00
2018-10-07T08:24:52.013Z,584.00
2018-10-07T08:25:52.017Z,576.00
2018-10-07T08:26:51.988Z,572.00
2018-10-07T08:27:52.001Z,568.00
2018-10-07T08:28:51.945Z,560.00
2018-10-07T08:29:51.935Z,552.00
2018-10-07T08:30:51.939Z,552.00
2018-10-07T08:31:51.924Z,552.00
2018-10-07T08:32:51.958Z,552.00
2018-10-07T08:33:51.909Z,556.00
2018-10-07T08:34:51.883Z,564.00
2018-10-07T08:35:51.875Z,580.00
2018-10-07T08:36:51.878Z,596.00
2018-10-07T08:37:51.853Z,624.00
2018-10-07T08:38:51.834Z,652.00
2018-10-07T08:39:51.832Z,680.00
2018-10-07T08:40:51.812Z,704.00
2018-10-07T08:41:51.842Z,736.00
2018-10-07T08:42:51.812Z,768.00
2018-10-07T08:43:51.782Z,804.00
2018-10-07T08:44:51.770Z,840.00
2018-10-07T08:45:51.792Z,876.00
2018-10-07T08:46:51.773Z,912.00
2018-10-07T08:47:51.743Z,944.00
2018-10-07T08:48:51.728Z,980.00
2018-10-07T08:49:51.744Z,1008.00
2018-10-07T08:50:51.705Z,1028.00
2018-10-07T08:51:51.717Z,1040.00
2018-10-07T08:52:51.709Z,1048.00
2018-10-07T08:53:51.732Z,1048.00
2018-10-07T08:54:51.698Z,1044.00
2018-10-07T08:55:51.648Z,1036.00
2018-10-07T08:56:51.639Z,1024.00
2018-10-07T08:57:51.640Z,1016.00
2018-10-07T08:58:51.623Z,1008.00
2018-10-07T08:59:51.606Z,1008.00
2018-10-07T09:00:51.598Z,1008.00
2018-10-07T09:01:51.588Z,1012.00
2018-10-07T09:02:51.580Z,1020.00
2018-10-07T09:03:51.578Z,1008.00
2018-10-07T09:04:51.544Z,1000.00
2018-10-07T09:05:51.541Z,984.00
2018-10-07T09:06:51.528Z,960.00
2018-10-07T09:07:51.522Z,936.00
2018-10-07T09:08:51.685Z,904.00
2018-10-07T09:09:51.533Z,872.00
2018-10-07T09:10:51.516Z,848.00
2018-10-07T09:11:51.497Z,828.00
2018-10-07T09:12:51.464Z,820.00
2018-10-07T09:13:51.496Z,828.00
2018-10-07T09:14:51.451Z,828.00
2018-10-07T09:15:51.443Z,836.00
2018-10-07T09:16:51.414Z,848.00
2018-10-07T09:17:51.417Z,844.00
2018-10-07T09:18:51.434Z,832.00
2018-10-07T09:19:51.433Z,816.00
2018-10-07T09:20:51.413Z,784.00
2018-10-07T09:21:51.387Z,764.00
2018-10-07T09:22:51.372Z,744.00
2018-10-07T09:23:51.389Z,732.00
2018-10-07T09:24:51.355Z,724.00
2018-10-07T09:25:51.347Z,720.00
2018-10-07T09:26:51.393Z,716.00
2018-10-07T09:27:51.295Z,724.00
2018-10-07T09:28:51.284Z,732.00
2018-10-07T09:29:51.295Z,724.00
2018-10-07T09:30:51.293Z,712.00
2018-10-07T09:31:51.271Z,708.00
2018-10-07T09:32:51.296Z,708.00
2018-10-07T09:33:51.251Z,712.00
2018-10-07T09:34:51.213Z,704.00
2018-10-07T09:35:51.204Z,688.00
2018-10-07T09:36:51.267Z,676.00
2018-10-07T09:37:51.176Z,668.00
2018-10-07T09:38:51.171Z,668.00
2018-10-07T09:39:51.204Z,668.00
2018-10-07T09:40:51.172Z,672.00
2018-10-07T09:41:51.130Z,684.00
2018-10-07T09:42:51.139Z,696.00
2018-10-07T09:43:51.115Z,700.00
2018-10-07T09:44:51.137Z,704.00
2018-10-07T09:45:51.093Z,708.00
2018-10-07T09:46:51.166Z,712.00
2018-10-07T09:47:51.124Z,720.00
2018-10-07T09:48:51.090Z,728.00
2018-10-07T09:49:51.054Z,740.00
2018-10-07T09:50:51.085Z,756.00
2018-10-07T09:51:51.066Z,772.00
2018-10-07T09:52:51.053Z,780.00
2018-10-07T09:53:51.054Z,784.00
2018-10-07T09:54:50.994Z,788.00
2018-10-07T09:55:51.000Z,776.00
2018-10-07T09:56:50.992Z,784.00
2018-10-07T09:57:50.978Z,796.00
2018-10-07T09:58:50.972Z,808.00
2018-10-07T09:59:50.947Z,824.00
2018-10-07T10:00:50.930Z,848.00
2018-10-07T10:01:50.912Z,872.00
2018-10-07T10:02:50.978Z,888.00
2018-10-07T10:03:50.925Z,888.00
2018-10-07T10:04:50.892Z,880.00
2018-10-07T10:05:50.870Z,864.00
2018-10-07T10:06:50.894Z,844.00
2018-10-07T10:07:50.896Z,832.00
2018-10-07T10:08:50.856Z,820.00
2018-10-07T10:09:50.931Z,824.00
2018-10-07T10:10:50.813Z,844.00
2018-10-07T10:11:50.800Z,868.00
2018-10-07T10:12:50.795Z,888.00
2018-10-07T10:13:50.794Z,896.00
2018-10-07T10:14:50.756Z,908.00
2018-10-07T10:15:50.747Z,924.00
2018-10-07T10:16:50.755Z,936.00
2018-10-07T10:17:50.749Z,944.00
2018-10-07T10:18:50.731Z,964.00
2018-10-07T10:19:50.707Z,980.00
2018-10-07T10:20:50.704Z,980.00
2018-10-07T10:21:50.719Z,976.00
2018-10-07T10:22:50.684Z,968.00
2018-10-07T10:23:50.672Z,940.00
2018-10-07T10:24:50.692Z,916.00
2018-10-07T10:25:50.725Z,888.00
2018-10-07T10:26:50.624Z,872.00
2018-10-07T10:27:50.632Z,888.00
2018-10-07T10:28:50.625Z,908.00
2018-10-07T10:29:50.617Z,920.00
2018-10-07T10:30:50.689Z,944.00
2018-10-07T10:31:50.585Z,884.00
2018-10-07T10:32:50.709Z,888.00
2018-10-07T10:33:50.547Z,824.00
2018-10-07T10:34:50.548Z,808.00
2018-10-07T10:35:50.535Z,808.00
2018-10-07T10:36:50.572Z,832.00
2018-10-07T10:37:50.515Z,832.00
2018-10-07T10:38:50.525Z,812.00
2018-10-07T10:39:50.493Z,768.00
2018-10-07T10:40:50.484Z,740.00
2018-10-07T10:41:50.465Z,732.00
2018-10-07T10:42:50.463Z,748.00
2018-10-07T10:43:50.483Z,784.00
2018-10-07T10:44:50.438Z,828.00
2018-10-07T10:45:50.460Z,864.00
2018-10-07T10:46:50.443Z,908.00
2018-10-07T10:47:50.403Z,932.00
2018-10-07T10:48:50.404Z,964.00
2018-10-07T10:49:50.377Z,964.00
2018-10-07T10:50:50.365Z,976.00
2018-10-07T10:51:50.417Z,956.00
2018-10-07T10:52:50.345Z,976.00
2018-10-07T10:53:50.379Z,920.00
2018-10-07T10:54:50.411Z,916.00
2018-10-07T10:55:50.331Z,912.00
2018-10-07T10:56:50.315Z,892.00
2018-10-07T10:57:50.299Z,880.00
2018-10-07T10:58:50.274Z,876.00
2018-10-07T10:59:50.298Z,876.00
2018-10-07T11:00:50.265Z,884.00
2018-10-07T11:01:50.281Z,900.00
2018-10-07T11:02:50.242Z,912.00
2018-10-07T11:03:50.212Z,896.00
2018-10-07T11:04:50.240Z,872.00
2018-10-07T11:05:50.201Z,872.00
2018-10-07T11:06:50.191Z,804.00
2018-10-07T11:07:50.220Z,772.00
2018-10-07T11:08:50.233Z,748.00
2018-10-07T11:09:50.233Z,760.00
2018-10-07T11:10:50.146Z,764.00
2018-10-07T11:11:50.172Z,804.00
2018-10-07T11:12:50.139Z,840.00
2018-10-07T11:13:50.222Z,908.00
2018-10-07T11:14:50.123Z,964.00
2018-10-07T11:15:50.114Z,1016.00
2018-10-07T11:16:50.097Z,1056.00
2018-10-07T11:17:50.094Z,1092.00
2018-10-07T11:18:50.045Z,1116.00
2018-10-07T11:19:50.037Z,1128.00
2018-10-07T11:20:50.049Z,1156.00
2018-10-07T11:21:50.015Z,1128.00
2018-10-07T11:22:50.008Z,1108.00
2018-10-07T11:23:50.009Z,1096.00
2018-10-07T11:24:49.996Z,1116.00
2018-10-07T11:25:50.009Z,1112.00
2018-10-07T11:26:50.002Z,1140.00
2018-10-07T11:27:49.961Z,1176.00
2018-10-07T11:28:49.980Z,1216.00
2018-10-07T11:29:49.930Z,1204.00
2018-10-07T11:30:49.942Z,1252.00
2018-10-07T11:31:49.914Z,1216.00
2018-10-07T11:32:49.940Z,1192.00
2018-10-07T11:33:49.892Z,1216.00
2018-10-07T11:34:50.000Z,1236.00
2018-10-07T11:35:49.873Z,1256.00
2018-10-07T11:36:49.873Z,1212.00
2018-10-07T11:37:49.885Z,1212.00
2018-10-07T11:38:49.969Z,1156.00
2018-10-07T11:39:49.865Z,1168.00
2018-10-07T11:40:49.850Z,1132.00
2018-10-07T11:41:49.819Z,1100.00
2018-10-07T11:42:49.818Z,1096.00
2018-10-07T11:43:49.773Z,1112.00
2018-10-07T11:44:49.767Z,1144.00
2018-10-07T11:45:49.755Z,1160.00
2018-10-07T11:46:49.763Z,1180.00
2018-10-07T11:47:49.735Z,1192.00
2018-10-07T11:48:49.720Z,1200.00
2018-10-07T11:49:49.703Z,1216.00
2018-10-07T11:50:49.707Z,1224.00
2018-10-07T11:51:49.713Z,1220.00
2018-10-07T11:52:49.843Z,1200.00
2018-10-07T11:53:49.676Z,1200.00
2018-10-07T11:54:49.684Z,1204.00
2018-10-07T11:55:49.637Z,1212.00
2018-10-07T11:56:49.653Z,1212.00
2018-10-07T11:57:49.621Z,1216.00
2018-10-07T11:58:49.611Z,1184.00
2018-10-07T11:59:49.634Z,1184.00
2018-10-07T12:00:49.591Z,1192.00
2018-10-07T12:01:49.628Z,1192.00
2018-10-07T12:02:49.673Z,1216.00
2018-10-07T12:03:49.558Z,1268.00
2018-10-07T12:04:49.576Z,1264.00
2018-10-07T12:05:49.565Z,1260.00
2018-10-07T12:06:49.589Z,1232.00
2018-10-07T12:07:49.544Z,1216.00
2018-10-07T12:08:49.534Z,1192.00
2018-10-07T12:09:49.522Z,1180.00
2018-10-07T12:10:49.483Z,1180.00
2018-10-07T12:11:49.508Z,1176.00
2018-10-07T12:12:49.465Z,1192.00
2018-10-07T12:13:49.533Z,1204.00
2018-10-07T12:14:49.475Z,1196.00
2018-10-07T12:15:49.465Z,1168.00
2018-10-07T12:16:49.459Z,1164.00
2018-10-07T12:17:49.405Z,1108.00
2018-10-07T12:18:49.437Z,1100.00
2018-10-07T12:19:49.376Z,1080.00
2018-10-07T12:20:49.410Z,1044.00
2018-10-07T12:21:49.354Z,1032.00
2018-10-07T12:22:49.386Z,1012.00
2018-10-07T12:23:49.337Z,1000.00
2018-10-07T12:24:49.438Z,1024.00
2018-10-07T12:25:49.363Z,1056.00
2018-10-07T12:26:49.384Z,1088.00
2018-10-07T12:27:49.297Z,1124.00
2018-10-07T12:28:49.347Z,1132.00
2018-10-07T12:29:49.283Z,1140.00
2018-10-07T12:30:49.276Z,1156.00
2018-10-07T12:31:49.978Z,1144.00
2018-10-07T12:32:49.264Z,1124.00
2018-10-07T12:33:49.234Z,1144.00
2018-10-07T12:34:49.219Z,1116.00
2018-10-07T12:35:49.230Z,1104.00
2018-10-07T12:36:49.312Z,1096.00
2018-10-07T12:37:49.182Z,1068.00
2018-10-07T12:38:49.169Z,1004.00
2018-10-07T12:39:49.186Z,960.00
2018-10-07T12:40:49.188Z,916.00
2018-10-07T12:41:49.128Z,872.00
2018-10-07T12:42:49.242Z,824.00
2018-10-07T12:43:49.153Z,800.00
2018-10-07T12:44:49.152Z,752.00
2018-10-07T12:45:49.102Z,764.00
2018-10-07T12:46:49.080Z,748.00
2018-10-07T12:47:49.099Z,724.00
2018-10-07T12:48:49.068Z,728.00